createdAt,value
2022-08-08T00:02:31.247Z,30.93
2022-08-08T00:05:44.223Z,31.13
2022-08-08T00:09:07.727Z,31.05
2022-08-08T00:12:15.592Z,31.62
2022-08-08T00:15:57.625Z,32.88
2022-08-08T00:19:16.883Z,34.02
2022-08-08T00:22:30.234Z,33.66
2022-08-08T00:25:46.805Z,33.23
2022-08-08T00:29:01.990Z,32.66
2022-08-08T00:32:34.264Z,32.34
2022-08-08T00:35:51.419Z,31.79
2022-08-08T00:38:57.285Z,30.96
2022-08-08T00:42:36.661Z,31.12
2022-08-08T00:45:43.089Z,30.99
2022-08-08T00:49:04.596Z,30.93
2022-08-08T00:52:48.873Z,31.25
2022-08-08T00:56:38.072Z,30.41
2022-08-08T01:00:00.472Z,28.71
2022-08-08T01:04:02.384Z,27.30
2022-08-08T01:07:20.781Z,25.59
2022-08-08T01:10:39.855Z,24.28
2022-08-08T01:13:58.365Z,23.34
2022-08-08T01:17:54.213Z,22.71
2022-08-08T01:22:13.108Z,22.20
2022-08-08T01:25:19.446Z,21.88
2022-08-08T01:28:41.789Z,21.55
2022-08-08T01:32:15.318Z,21.38
2022-08-08T01:36:03.953Z,21.17
2022-08-08T01:39:28.561Z,20.92
2022-08-08T01:43:34.783Z,20.86
2022-08-08T01:46:53.445Z,20.74
2022-08-08T01:50:36.594Z,20.68
2022-08-08T01:55:08.556Z,20.58
2022-08-08T01:58:04.325Z,20.57
2022-08-08T02:01:09.000Z,20.70
2022-08-08T02:05:02.230Z,20.72
2022-08-08T02:08:33.771Z,20.59
2022-08-08T02:12:00.020Z,20.64
2022-08-08T02:15:41.912Z,20.77
2022-08-08T02:19:26.984Z,20.77
2022-08-08T02:22:57.694Z,20.78
2022-08-08T02:26:10.887Z,20.92
2022-08-08T02:29:41.657Z,20.92
2022-08-08T02:33:14.076Z,21.04
2022-08-08T02:36:50.250Z,21.14
2022-08-08T02:40:03.892Z,21.16
2022-08-08T02:44:37.275Z,21.17
2022-08-08T02:47:32.112Z,21.10
2022-08-08T02:50:53.091Z,20.97
2022-08-08T02:54:40.713Z,21.09
2022-08-08T02:58:08.666Z,21.17
2022-08-08T03:01:49.945Z,21.29
2022-08-08T03:05:45.265Z,21.28
2022-08-08T03:08:51.907Z,21.14
2022-08-08T03:12:36.610Z,21.15
2022-08-08T03:16:05.421Z,21.18
2022-08-08T03:19:25.356Z,21.39
2022-08-08T03:22:37.688Z,21.51
2022-08-08T03:25:50.333Z,21.54
2022-08-08T03:29:00.744Z,21.43
2022-08-08T03:32:29.099Z,21.48
2022-08-08T03:35:40.134Z,21.60
2022-08-08T03:38:55.821Z,21.63
2022-08-08T03:42:30.563Z,21.76
2022-08-08T03:46:06.610Z,21.81
2022-08-08T03:49:10.098Z,21.95
2022-08-08T03:52:28.292Z,22.19
2022-08-08T03:55:57.221Z,22.42
2022-08-08T03:58:56.824Z,22.78
2022-08-08T04:02:13.217Z,23.00
2022-08-08T04:05:30.113Z,23.18
2022-08-08T04:08:40.287Z,23.28
2022-08-08T04:12:01.099Z,23.61
2022-08-08T04:15:14.589Z,23.80
2022-08-08T04:18:20.381Z,24.06
2022-08-08T04:21:23.917Z,24.20
2022-08-08T04:24:34.964Z,24.37
2022-08-08T04:28:02.862Z,24.50
2022-08-08T04:31:06.232Z,24.46
2022-08-08T04:34:12.847Z,24.12
2022-08-08T04:37:15.952Z,23.74
2022-08-08T04:40:23.812Z,23.65
2022-08-08T04:43:31.958Z,23.64
2022-08-08T04:46:52.974Z,23.74
2022-08-08T04:49:59.054Z,23.67
2022-08-08T04:53:51.954Z,23.55
2022-08-08T04:56:35.909Z,23.39
2022-08-08T04:59:41.860Z,23.20
2022-08-08T05:02:47.073Z,23.05
2022-08-08T05:05:57.858Z,23.10
2022-08-08T05:09:06.213Z,23.20
2022-08-08T05:12:20.959Z,23.18
2022-08-08T05:15:26.415Z,23.28
2022-08-08T05:18:49.871Z,23.66
2022-08-08T05:21:59.991Z,23.78
2022-08-08T05:25:07.608Z,23.53
2022-08-08T05:28:13.428Z,23.06
2022-08-08T05:32:02.315Z,22.65
2022-08-08T05:34:49.668Z,22.47
2022-08-08T05:38:05.256Z,22.89
2022-08-08T05:41:34.169Z,23.08
2022-08-08T05:45:00.733Z,23.17
2022-08-08T05:48:14.819Z,23.42
2022-08-08T05:51:18.512Z,23.63
2022-08-08T05:54:42.804Z,23.65
2022-08-08T05:58:05.794Z,23.42
2022-08-08T06:01:12.331Z,23.20
2022-08-08T06:04:35.532Z,23.40
2022-08-08T06:07:47.026Z,23.82
2022-08-08T06:10:51.888Z,24.05
2022-08-08T06:13:55.352Z,23.83
2022-08-08T06:17:02.666Z,23.52
2022-08-08T06:20:26.713Z,23.04
2022-08-08T06:23:53.281Z,22.93
2022-08-08T06:27:10.375Z,22.66
2022-08-08T06:30:26.299Z,22.50
2022-08-08T06:34:26.095Z,22.46
2022-08-08T06:37:40.455Z,22.28
2022-08-08T06:40:54.170Z,22.16
2022-08-08T06:44:04.491Z,22.22
2022-08-08T06:47:11.674Z,22.53
2022-08-08T06:50:17.696Z,22.68
2022-08-08T06:53:39.719Z,22.90
2022-08-08T06:56:51.353Z,22.88
2022-08-08T07:00:10.515Z,22.85
2022-08-08T07:03:52.303Z,23.02
2022-08-08T07:07:10.564Z,23.00
2022-08-08T07:10:22.438Z,22.97
2022-08-08T07:14:01.112Z,23.06
2022-08-08T07:17:15.061Z,23.21
2022-08-08T07:20:29.466Z,23.18
2022-08-08T07:23:57.471Z,23.06
2022-08-08T07:27:16.857Z,23.08
2022-08-08T07:30:25.679Z,23.16
2022-08-08T07:33:38.080Z,23.32
2022-08-08T07:36:59.299Z,23.34
2022-08-08T07:40:02.819Z,23.46
2022-08-08T07:43:09.449Z,23.54
2022-08-08T07:46:29.107Z,23.41
2022-08-08T07:49:46.258Z,23.50
2022-08-08T07:53:01.023Z,23.57
2022-08-08T07:56:05.135Z,23.16
2022-08-08T07:59:14.958Z,22.93
2022-08-08T08:02:35.905Z,22.76
2022-08-08T08:05:49.385Z,22.52
2022-08-08T08:09:24.538Z,22.27
2022-08-08T08:12:35.375Z,21.99
2022-08-08T08:15:58.090Z,21.91
2022-08-08T08:19:06.109Z,21.85
2022-08-08T08:22:14.987Z,22.06
2022-08-08T08:25:42.249Z,22.34
2022-08-08T08:28:46.335Z,22.48
2022-08-08T08:31:53.959Z,22.56
2022-08-08T08:35:03.585Z,22.43
2022-08-08T08:38:16.988Z,22.27
2022-08-08T08:41:26.057Z,22.35
2022-08-08T08:44:34.117Z,22.44
2022-08-08T08:47:45.194Z,22.56
2022-08-08T08:50:52.688Z,22.48
2022-08-08T08:54:01.248Z,22.44
2022-08-08T08:57:17.258Z,22.54
2022-08-08T09:00:25.034Z,22.58
2022-08-08T09:03:46.962Z,22.54
2022-08-08T09:06:59.697Z,22.55
2022-08-08T09:10:04.565Z,22.56
2022-08-08T09:13:17.668Z,22.48
2022-08-08T09:16:32.767Z,22.53
2022-08-08T09:22:02.791Z,22.61
2022-08-08T09:23:02.336Z,22.68
2022-08-08T09:26:18.845Z,22.68
2022-08-08T09:29:26.690Z,22.61
2022-08-08T09:33:13.038Z,22.55
2022-08-08T09:36:08.290Z,22.44
2022-08-08T09:39:18.928Z,22.29
2022-08-08T09:42:26.089Z,22.24
2022-08-08T09:45:54.650Z,22.19
2022-08-08T09:49:41.179Z,21.99
2022-08-08T09:52:56.206Z,21.89
2022-08-08T09:56:05.804Z,21.82
2022-08-08T09:59:43.169Z,21.77
2022-08-08T10:02:40.233Z,21.78
2022-08-08T10:05:46.880Z,21.87
2022-08-08T10:08:52.470Z,21.98
2022-08-08T10:12:27.878Z,22.01
2022-08-08T10:15:19.854Z,21.90
2022-08-08T10:18:30.206Z,21.81
2022-08-08T10:21:42.246Z,21.70
2022-08-08T10:25:01.421Z,21.48
2022-08-08T10:28:05.987Z,21.30
2022-08-08T10:31:47.203Z,21.29
2022-08-08T10:34:58.528Z,21.17
2022-08-08T10:38:08.066Z,21.14
2022-08-08T10:41:20.083Z,21.16
2022-08-08T10:44:50.338Z,21.27
2022-08-08T10:47:58.280Z,21.32
2022-08-08T10:51:13.166Z,21.39
2022-08-08T10:54:25.152Z,21.35
2022-08-08T10:57:45.012Z,21.30
2022-08-08T11:00:54.328Z,21.25
2022-08-08T11:04:10.877Z,21.18
2022-08-08T11:08:30.954Z,21.09
2022-08-08T11:12:00.740Z,20.95
2022-08-08T11:14:31.960Z,20.86
2022-08-08T11:17:58.714Z,20.75
2022-08-08T11:21:08.776Z,20.66
2022-08-08T11:24:13.835Z,20.57
2022-08-08T11:27:20.173Z,20.47
2022-08-08T11:30:31.776Z,20.42
2022-08-08T11:33:52.503Z,20.36
2022-08-08T11:37:14.798Z,20.28
2022-08-08T11:40:21.473Z,20.17
2022-08-08T11:43:39.195Z,20.07
2022-08-08T11:46:44.814Z,19.94
2022-08-08T11:49:50.859Z,19.82
2022-08-08T11:52:55.983Z,19.72
2022-08-08T11:56:02.018Z,19.59
2022-08-08T11:59:13.220Z,19.47
2022-08-08T12:02:31.777Z,19.36
2022-08-08T12:05:41.168Z,19.23
2022-08-08T12:08:44.788Z,19.10
2022-08-08T12:11:49.465Z,18.99
2022-08-08T12:15:04.995Z,18.89
2022-08-08T12:18:43.985Z,18.79
2022-08-08T12:22:00.115Z,18.70
2022-08-08T12:25:21.264Z,18.65
2022-08-08T12:28:32.983Z,18.59
2022-08-08T12:31:39.210Z,18.58
2022-08-08T12:35:04.604Z,18.55
2022-08-08T12:38:17.935Z,18.46
2022-08-08T12:41:33.766Z,18.38
2022-08-08T12:44:48.349Z,18.32
2022-08-08T12:48:10.445Z,18.24
2022-08-08T12:51:39.751Z,18.12
2022-08-08T12:54:47.394Z,18.01
2022-08-08T12:57:56.622Z,17.93
2022-08-08T13:01:11.160Z,17.84
2022-08-08T13:04:24.400Z,17.75
2022-08-08T13:08:03.517Z,17.67
2022-08-08T13:11:06.010Z,17.56
2022-08-08T13:14:15.805Z,17.47
2022-08-08T13:17:53.889Z,17.35
2022-08-08T13:20:51.796Z,17.25
2022-08-08T13:23:56.029Z,17.11
2022-08-08T13:27:11.749Z,17.01
2022-08-08T13:30:20.824Z,16.92
2022-08-08T13:33:25.560Z,16.87
2022-08-08T13:36:29.845Z,16.76
2022-08-08T13:39:34.897Z,16.70
2022-08-08T13:42:41.359Z,16.63
2022-08-08T13:45:47.622Z,16.55
2022-08-08T13:49:11.821Z,16.49
2022-08-08T13:52:36.035Z,16.44
2022-08-08T13:55:40.889Z,16.36
2022-08-08T13:58:57.548Z,16.34
2022-08-08T14:02:07.581Z,16.26
2022-08-08T14:05:22.197Z,16.21
2022-08-08T14:08:34.518Z,16.19
2022-08-08T14:11:38.413Z,16.18
2022-08-08T14:14:46.585Z,16.08
2022-08-08T14:18:35.640Z,16.01
2022-08-08T14:21:22.407Z,15.98
2022-08-08T14:24:35.407Z,15.99
2022-08-08T14:27:42.432Z,15.96
2022-08-08T14:31:10.984Z,15.92
2022-08-08T14:34:29.622Z,15.83
2022-08-08T14:37:43.206Z,15.76
2022-08-08T14:41:45.538Z,15.74
2022-08-08T14:44:54.951Z,15.77
2022-08-08T14:48:04.340Z,15.80
2022-08-08T14:51:07.893Z,15.81
2022-08-08T14:54:16.167Z,15.76
2022-08-08T14:58:02.445Z,15.67
2022-08-08T15:00:54.628Z,15.55
2022-08-08T15:04:08.487Z,15.48
2022-08-08T15:07:24.266Z,15.46
2022-08-08T15:10:35.679Z,15.48
2022-08-08T15:14:01.777Z,15.52
2022-08-08T15:17:05.482Z,15.57
2022-08-08T15:20:14.487Z,15.61
2022-08-08T15:23:17.842Z,15.62
2022-08-08T15:26:25.556Z,15.62
2022-08-08T15:29:28.919Z,15.58
2022-08-08T15:32:32.099Z,15.53
2022-08-08T15:35:39.169Z,15.54
2022-08-08T15:38:49.630Z,15.51
2022-08-08T15:41:55.548Z,15.53
2022-08-08T15:44:58.298Z,15.58
2022-08-08T15:48:05.536Z,15.53
2022-08-08T15:51:19.122Z,15.54
2022-08-08T15:54:38.001Z,15.54
2022-08-08T15:57:43.211Z,15.55
2022-08-08T16:00:47.346Z,15.56
2022-08-08T16:03:53.441Z,15.59
2022-08-08T16:06:56.688Z,15.62
2022-08-08T16:13:07.285Z,15.62
2022-08-08T16:13:33.555Z,15.65
2022-08-08T16:16:46.765Z,15.69
2022-08-08T16:20:00.281Z,15.74
2022-08-08T16:23:05.013Z,15.76
2022-08-08T16:26:17.358Z,15.72
2022-08-08T16:29:36.952Z,15.68
2022-08-08T16:32:41.324Z,15.59
2022-08-08T16:35:49.611Z,15.56
2022-08-08T16:38:53.851Z,15.57
2022-08-08T16:42:01.429Z,15.53
2022-08-08T16:45:11.573Z,15.50
2022-08-08T16:48:32.117Z,15.46
2022-08-08T16:54:59.768Z,15.44
2022-08-08T16:55:34.307Z,15.39
2022-08-08T16:58:31.727Z,15.33
2022-08-08T17:01:39.793Z,15.26
2022-08-08T17:04:43.267Z,15.17
2022-08-08T17:07:51.464Z,15.11
2022-08-08T17:10:58.830Z,15.04
2022-08-08T17:14:19.128Z,14.97
2022-08-08T17:18:01.208Z,14.96
2022-08-08T17:20:46.392Z,14.91
2022-08-08T17:23:58.447Z,14.88
2022-08-08T17:27:07.545Z,14.81
2022-08-08T17:30:16.235Z,14.81
2022-08-08T17:34:36.835Z,14.75
2022-08-08T17:37:02.767Z,14.69
2022-08-08T17:40:12.825Z,14.64
2022-08-08T17:43:18.701Z,14.56
2022-08-08T17:46:42.300Z,14.51
2022-08-08T17:49:46.280Z,14.43
2022-08-08T17:52:57.443Z,14.39
2022-08-08T17:56:03.753Z,14.36
2022-08-08T17:59:10.662Z,14.34
2022-08-08T18:02:18.507Z,14.30
2022-08-08T18:05:23.448Z,14.27
2022-08-08T18:08:41.481Z,14.22
2022-08-08T18:11:51.108Z,14.18
2022-08-08T18:14:55.082Z,14.11
2022-08-08T18:18:10.026Z,14.05
2022-08-08T18:21:35.336Z,14.03
2022-08-08T18:24:48.659Z,13.95
2022-08-08T18:27:53.633Z,13.90
2022-08-08T18:30:57.985Z,13.85
2022-08-08T18:34:11.817Z,13.73
2022-08-08T18:37:34.060Z,13.62
2022-08-08T18:40:38.142Z,13.53
2022-08-08T18:43:42.965Z,13.49
2022-08-08T18:46:56.175Z,13.40
2022-08-08T18:50:02.605Z,13.27
2022-08-08T18:53:06.146Z,13.19
2022-08-08T18:56:21.308Z,13.17
2022-08-08T18:59:34.414Z,13.14
2022-08-08T19:02:38.299Z,13.10
2022-08-08T19:05:51.907Z,13.09
2022-08-08T19:08:56.193Z,13.10
2022-08-08T19:12:00.411Z,13.09
2022-08-08T19:15:03.645Z,13.10
2022-08-08T19:18:32.242Z,13.10
2022-08-08T19:21:48.711Z,13.11
2022-08-08T19:26:02.186Z,13.12
2022-08-08T19:28:18.108Z,13.13
2022-08-08T19:31:23.575Z,13.13
2022-08-08T19:34:38.586Z,13.15
2022-08-08T19:37:47.801Z,13.18
2022-08-08T19:40:58.392Z,13.18
2022-08-08T19:44:13.065Z,13.18
2022-08-08T19:47:27.904Z,13.14
2022-08-08T19:50:37.140Z,13.10
2022-08-08T19:53:53.231Z,13.03
2022-08-08T19:56:57.978Z,12.98
2022-08-08T20:00:01.701Z,12.92
2022-08-08T20:03:14.617Z,12.87
2022-08-08T20:06:35.385Z,12.80
2022-08-08T20:09:44.447Z,12.81
2022-08-08T20:12:59.034Z,12.69
2022-08-08T20:16:19.542Z,12.64
2022-08-08T20:19:22.854Z,12.60
2022-08-08T20:22:30.668Z,12.56
2022-08-08T20:25:36.360Z,12.57
2022-08-08T20:28:40.138Z,12.56
2022-08-08T20:32:09.957Z,12.55
2022-08-08T20:35:11.169Z,12.53
2022-08-08T20:38:18.151Z,12.52
2022-08-08T20:41:21.538Z,12.52
2022-08-08T20:44:27.356Z,12.46
2022-08-08T20:47:36.580Z,12.41
2022-08-08T20:50:42.744Z,12.37
2022-08-08T20:53:59.172Z,12.31
2022-08-08T20:57:17.122Z,12.30
2022-08-08T21:00:23.541Z,12.30
2022-08-08T21:03:29.650Z,12.37
2022-08-08T21:06:52.922Z,12.29
2022-08-08T21:10:08.001Z,12.27
2022-08-08T21:13:15.675Z,12.38
2022-08-08T21:16:29.145Z,12.50
2022-08-08T21:19:34.065Z,12.58
2022-08-08T21:22:50.676Z,12.61
2022-08-08T21:25:55.051Z,12.67
2022-08-08T21:29:01.096Z,12.73
2022-08-08T21:32:14.194Z,12.81
2022-08-08T21:36:13.579Z,12.81
2022-08-08T21:38:51.992Z,12.87
2022-08-08T21:41:59.097Z,12.92
2022-08-08T21:45:44.706Z,12.92
2022-08-08T21:48:35.305Z,12.97
2022-08-08T21:54:17.926Z,13.04
2022-08-08T21:55:24.028Z,13.11
2022-08-08T21:58:37.449Z,13.22
2022-08-08T22:01:42.135Z,13.29
2022-08-08T22:04:45.881Z,13.36
2022-08-08T22:07:49.969Z,13.52
2022-08-08T22:10:54.359Z,15.10
2022-08-08T22:13:58.547Z,18.00
2022-08-08T22:17:01.760Z,20.75
2022-08-08T22:20:12.886Z,22.92
2022-08-08T22:23:21.850Z,24.46
2022-08-08T22:26:33.032Z,25.71
2022-08-08T22:29:59.353Z,26.72
2022-08-08T22:32:59.218Z,27.60
2022-08-08T22:36:05.487Z,28.27
2022-08-08T22:39:19.629Z,29.19
2022-08-08T22:42:26.993Z,29.57
2022-08-08T22:45:34.809Z,30.11
2022-08-08T22:48:38.363Z,30.61
2022-08-08T22:51:46.801Z,31.08
2022-08-08T22:55:04.503Z,31.36
2022-08-08T22:58:08.591Z,31.85
2022-08-08T23:01:16.717Z,32.53
2022-08-08T23:04:35.803Z,32.93
2022-08-08T23:07:56.905Z,33.42
2022-08-08T23:11:01.131Z,33.67
2022-08-08T23:14:11.364Z,34.07
2022-08-08T23:17:16.786Z,34.41
2022-08-08T23:20:19.965Z,34.68
2022-08-08T23:23:23.032Z,35.03
2022-08-08T23:26:26.392Z,35.04
2022-08-08T23:29:31.240Z,35.43
2022-08-08T23:32:34.658Z,35.35
2022-08-08T23:35:59.146Z,35.35
2022-08-08T23:39:00.847Z,36.23
2022-08-08T23:42:07.907Z,36.71
2022-08-08T23:45:12.674Z,36.64
2022-08-08T23:49:05.324Z,36.67
2022-08-08T23:51:41.829Z,37.05
2022-08-08T23:55:14.552Z,37.21
2022-08-08T23:58:37.401Z,38.04
